Joussard, Canada
Current Conditions -  °F | °C
As of 9:00 PM on Thursday 18 Dec 2014 (Local Time) from CYZH Reporting Station
Haze Haze  
Wind Chill: -6°   Ceiling: Unl
Heat Index:   Visibility: 4mi
Dew Point:   Wind: 6mph
Humidity: 92%   Direction: 130°SE
Pressure: 29.83"   Gusts: NA
Location:  55.37°N, 115.93°W
Report Text: CYZH 190400Z AUTO 13005KT 4SM BR CLR M15/M16 A2983 RMK SLP152
Loading
Personal Weather Stations






























Interactive Weather Map New forecast layout! Learn more

10-Day Weather Forecast

Advertisements
Track Severe Weather on mobile